Crouch End, United Kingdom
Current Conditions -  °F | °C
As of 11:20 PM on Wednesday 26 Nov 2014 (Local Time) from EGLC Reporting Station
Light Rain Light Rain  
Wind Chill: 50°   Ceiling: 100
Heat Index: 50°   Visibility: 0.87mi
Dew Point: 48°   Wind: 7mph
Humidity: 94%   Direction: 80°E
Pressure: 29.74"   Gusts: NA
Location:  51.58°N, 0.12°W
Report Text: EGLC 262320Z AUTO 08006KT 1400 -RA OVC001/// 10/09 Q1007 RERA
Loading
Personal Weather Stations






























Interactive Weather Map New forecast layout! Learn more

10-Day Weather Forecast

Advertisements
Track Severe Weather on mobile